Startpagina
METAR-TAF:

METAR-TAF

Vliegvelden :

Chièvres, België

Vliegbasis Chièvres

breedte: 50-34N, lengte: 003-50E, hoogte: 60 m

Actueel weer

Dit bericht is 18 minuten geleden gemaakt, om 06:25 UTC
Wind 5 kt uit het westen
Temperatuur 1°C
Vochtigheid 93%
Druk 1020 hPa
Zicht 10 km of meer

METAR: EBCV 190625Z AUTO 28005KT 9999 NCD 01/M00 Q1020 BLU

Tijdstip: 07:43 (06:43 UTC)

Verwachting

Dit bericht is 1 uur en het 40 minuten geleden gemaakt, om 05:03 UTC
Verwachting geldig van 19 om 07 UTC tot 19 om 16 UTC
Wind 10 kt uit het westnoordwesten
Zicht 10 km of meer
Weinig wolken op 2500 ft
Gebroken wolken op 2000 ft
Tijdelijke
van 19 om 07 UTC tot 19 om 12 UTC
Verspreide wolken op 2500 ft

TAF: EBCV 190503Z 1907/1916 29010KT 9999 FEW025 BKN020 TEMPO 1907/1912 SCT025 BY EBWM

Waarnemingen en weersverwachtingen van meer dan 4000 vliegvelden (METAR en TAF).

De beschikbare stations zijn de gele en rode punten op de kaart.

Ga met uw muis naar het station om de naam te zien.

Klik dan om waarnemingen en weersverwachtingen te zien.

kaart wijzigen: klik op de groene knoppen met een zwart kruis om in te zoomen, op de groene knop met een streepje om uit te zoomen of op de groene pijlen voor aangrenzende kaarten.


METAR-TAF: